Lecanto, Florida
Current Conditions -  °F | °C
As of 2:15 PM on Thursday 18 Dec 2014 (Local Time) from KCGC Reporting Station
Clear Clear  
Wind Chill: 63°   Ceiling: Unl
Heat Index: 63°   Visibility: 10mi
Dew Point: 43°   Wind: 7mph
Humidity: 48%   Direction: 290°WNW
Pressure: 30.13"   Gusts: NA
Location:  28.86°N, 82.49°W
Report Text: KCGC 181915Z AUTO 29006KT 10SM CLR 17/06 A3013 RMK AO2
Loading
Personal Weather Stations






























Interactive Weather Map New forecast layout! Learn more

10-Day Weather Forecast

Advertisements
Track Severe Weather on mobile